Time;durP1;ratioP1;P1;durP2;ratioP2;P2;SDS_P1;SDS_P2;PMS_P1;PMS_P2;Temp;Humidity;BMP_temperature;BMP_pressure;BME280_temperature;BME280_humidity;BME280_pressure;Samples;Min_cycle;Max_cycle;Signal;HPM_P1;HPM_P2
2022/08/11 03:58:08;;;;;;;3.30;1.90;;;;;;;22.80;44.24;100931.84;5606521;31;78887;-56
2022/08/11 04:01:17;;;;;;;7.68;2.28;;;;;;;22.80;44.24;100931.84;5584053;31;34056;-57
2022/08/11 04:04:57;;;;;;;5.10;2.20;;;;;;;22.32;45.43;100939.91;5584097;31;33603;-57
2022/08/11 04:08:14;;;;;;;2.62;1.77;;;;;;;22.39;45.33;100931.91;5583872;31;33601;-57
2022/08/11 04:11:28;;;;;;;2.58;1.80;;;;;;;22.48;44.80;100943.50;5583940;32;34367;-57
2022/08/11 04:18:51;;;;;;;2.40;1.90;;;;;;;22.54;44.62;100941.28;5562460;31;33507;-57
2022/08/11 04:22:34;;;;;;;5.12;2.00;;;;;;;22.61;44.64;100943.41;5583749;31;34320;-57
2022/08/11 04:25:53;;;;;;;3.45;1.67;;;;;;;22.48;44.76;100935.28;5583944;31;33707;-57
2022/08/11 04:29:24;;;;;;;3.65;1.90;;;;;;;22.51;45.01;100941.97;5583705;32;34303;-57
2022/08/11 04:32:58;;;;;;;4.03;2.00;;;;;;;22.55;44.48;100942.91;5583644;32;33589;-57
2022/08/11 04:36:08;;;;;;;3.00;1.62;;;;;;;22.62;44.31;100942.31;5583638;31;33666;-57
2022/08/11 04:39:26;;;;;;;3.60;1.90;;;;;;;22.64;44.58;100959.13;5583336;31;34375;-57
2022/08/11 04:46:31;;;;;;;3.03;2.00;;;;;;;22.75;43.79;100952.03;5577900;31;34311;-57
2022/08/11 05:08:11;;;;;;;4.15;1.90;;;;;;;22.89;43.21;100948.87;5557977;32;34026;-57
2022/08/11 05:11:58;;;;;;;5.50;2.00;;;;;;;22.84;43.57;100949.13;5550685;32;33591;-57
2022/08/11 05:36:46;;;;;;;9.75;2.37;;;;;;;23.49;42.58;100966.09;5550179;32;33661;-57
2022/08/11 05:56:58;;;;;;;7.80;2.50;;;;;;;24.09;41.49;100972.22;5549987;32;33815;-57
2022/08/11 06:00:10;;;;;;;7.07;1.85;;;;;;;24.01;41.60;100978.69;5550188;32;33730;-57
2022/08/11 06:03:24;;;;;;;4.00;1.85;;;;;;;23.98;40.87;100970.41;5549957;32;33571;-57
2022/08/11 06:06:28;;;;;;;3.55;1.92;;;;;;;24.06;40.85;100972.13;5550214;32;34243;-57
2022/08/11 06:09:50;;;;;;;6.80;2.00;;;;;;;23.92;41.21;100976.13;5549897;32;34425;-57
2022/08/11 06:12:54;;;;;;;8.52;1.98;;;;;;;23.96;42.19;100973.47;5549998;32;34223;-57
2022/08/11 06:15:58;;;;;;;9.77;2.00;;;;;;;24.03;40.77;100975.59;5549734;32;34318;-57
2022/08/11 06:19:07;;;;;;;8.80;2.17;;;;;;;23.93;41.22;100974.19;5548864;32;33724;-57
2022/08/11 06:22:11;;;;;;;11.48;2.60;;;;;;;23.94;41.37;100974.97;5549924;32;33936;-57
2022/08/11 06:25:14;;;;;;;4.90;2.00;;;;;;;24.01;41.17;100975.94;5548071;32;33613;-57
2022/08/11 06:28:29;;;;;;;5.12;1.85;;;;;;;24.15;43.23;100965.31;5556351;32;34087;-57
2022/08/11 06:31:33;;;;;;;8.95;2.08;;;;;;;24.22;41.53;100961.94;5568502;32;33593;-57
2022/08/11 06:34:58;;;;;;;5.18;1.92;;;;;;;24.18;40.78;100966.53;5569420;32;34334;-57
2022/08/11 06:38:15;;;;;;;6.12;2.40;;;;;;;24.28;41.13;100968.72;5569461;32;33413;-57
2022/08/11 06:41:33;;;;;;;8.20;2.33;;;;;;;24.23;40.23;100968.19;5569287;32;33584;-57
2022/08/11 06:44:42;;;;;;;2.87;1.83;;;;;;;24.29;40.43;100972.25;5569268;32;34222;-57
2022/08/11 06:47:48;;;;;;;4.55;1.87;;;;;;;24.53;40.41;100969.25;5568607;32;33699;-57
2022/08/11 06:51:13;;;;;;;6.90;2.20;;;;;;;24.68;40.41;100970.34;5569007;32;33691;-57
2022/08/11 06:54:16;;;;;;;8.77;2.47;;;;;;;24.77;38.96;100962.69;5569369;32;34704;-57
2022/08/11 07:00:40;;;;;;;6.28;2.20;;;;;;;24.81;39.85;100960.00;5569318;32;34352;-57
2022/08/11 07:03:46;;;;;;;5.72;2.20;;;;;;;24.88;39.09;100967.59;5569089;32;33694;-57
2022/08/11 07:17:30;;;;;;;6.62;1.98;;;;;;;24.80;38.68;100955.66;5568555;32;33426;-57
2022/08/11 07:31:22;;;;;;;3.33;1.90;;;;;;;25.14;37.32;100953.19;5568275;32;33589;-57
2022/08/11 07:34:35;;;;;;;3.25;1.77;;;;;;;24.89;37.41;100958.19;5568893;32;34384;-57
2022/08/11 07:37:41;;;;;;;11.68;2.00;;;;;;;25.01;37.57;100953.34;5568608;32;34407;-57
2022/08/11 07:40:45;;;;;;;26.55;2.97;;;;;;;25.15;37.46;100963.00;5568583;32;34341;-57
2022/08/11 07:43:51;;;;;;;7.12;2.00;;;;;;;25.20;36.16;100960.75;5568613;32;33839;-57
2022/08/11 07:53:38;;;;;;;5.60;1.90;;;;;;;25.46;36.89;100940.81;5568455;32;33630;-56
2022/08/11 08:17:47;;;;;;;4.68;1.73;;;;;;;25.60;35.23;100939.44;5567816;32;33152;-57
2022/08/11 08:21:13;;;;;;;2.03;1.83;;;;;;;25.65;34.95;100934.41;5567183;32;33748;-57
2022/08/11 08:24:19;;;;;;;6.95;1.95;;;;;;;25.65;35.47;100930.88;5567613;32;33739;-57
2022/08/11 08:27:24;;;;;;;5.50;2.00;;;;;;;25.66;35.98;100936.03;5567570;32;34239;-57
2022/08/11 08:30:49;;;;;;;4.25;1.70;;;;;;;25.64;36.12;100932.06;5567561;32;34250;-57
2022/08/11 08:33:52;;;;;;;6.53;1.80;;;;;;;25.67;35.18;100932.09;5566812;32;33717;-57
2022/08/11 08:36:54;;;;;;;4.18;1.50;;;;;;;25.65;34.53;100930.88;5567468;32;33333;-57
2022/08/11 08:39:57;;;;;;;3.10;1.92;;;;;;;25.62;34.97;100924.16;5567402;32;33763;-57
2022/08/11 08:43:08;;;;;;;3.58;1.67;;;;;;;25.62;35.21;100926.13;5568271;32;34366;-57
2022/08/11 08:46:12;;;;;;;3.45;1.80;;;;;;;25.56;35.07;100920.16;5570062;32;34522;-57
2022/08/11 08:49:21;;;;;;;4.87;1.85;;;;;;;25.63;35.35;100909.31;5569712;32;33746;-57
2022/08/11 08:52:24;;;;;;;18.15;2.58;;;;;;;25.64;35.25;100910.09;5570141;32;34216;-57
2022/08/11 08:55:44;;;;;;;5.85;1.92;;;;;;;25.69;35.09;100907.00;5569824;32;33742;-57
2022/08/11 08:58:48;;;;;;;8.75;2.08;;;;;;;25.60;35.24;100915.53;5569852;32;34313;-57
2022/08/11 09:02:01;;;;;;;14.68;2.45;;;;;;;25.66;35.25;100907.75;5570184;32;34358;-57
2022/08/11 09:05:06;;;;;;;4.70;2.00;;;;;;;25.72;36.00;100911.75;5568267;32;34257;-57
2022/08/11 09:08:09;;;;;;;3.37;1.75;;;;;;;25.86;34.87;100903.78;5568235;32;34396;-57
2022/08/11 09:18:08;;;;;;;4.97;1.70;;;;;;;25.72;34.95;100895.28;5561781;32;33736;-57
2022/08/11 09:21:13;;;;;;;2.08;1.42;;;;;;;25.72;32.93;100890.59;5569550;32;33925;-57
2022/08/11 09:28:03;;;;;;;3.65;1.67;;;;;;;25.74;34.70;100887.47;5569515;32;33523;-57
2022/08/11 09:31:06;;;;;;;5.82;1.62;;;;;;;25.94;33.67;100879.94;5569720;32;33688;-57
2022/08/11 09:34:09;;;;;;;2.92;1.23;;;;;;;26.04;31.36;100887.53;5569513;32;33851;-57
2022/08/11 09:40:53;;;;;;;4.62;1.70;;;;;;;26.21;32.23;100884.19;5569398;32;34451;-57
2022/08/11 09:47:27;;;;;;;5.28;1.83;;;;;;;26.34;30.46;100872.97;5569392;31;33778;-57
2022/08/11 09:50:32;;;;;;;4.93;2.03;;;;;;;26.44;30.59;100864.81;5569937;32;34324;-57
2022/08/11 09:53:36;;;;;;;;;;;;;;;26.51;29.46;100864.13;5569880;32;34431;-57
2022/08/11 10:00:09;;;;;;;2.03;1.50;;;;;;;26.43;29.34;100863.25;5569817;32;33443;-57
2022/08/11 10:03:19;;;;;;;1.60;1.30;;;;;;;26.36;30.36;100856.91;5569349;32;33673;-57
2022/08/11 10:09:55;;;;;;;4.43;1.62;;;;;;;26.32;30.72;100854.06;5569762;32;33644;-57
2022/08/11 10:13:03;;;;;;;3.60;1.45;;;;;;;26.45;31.16;100854.63;5569466;32;34258;-57
2022/08/11 10:16:09;;;;;;;4.30;1.50;;;;;;;26.33;31.16;100855.69;5569599;32;33577;-57
2022/08/11 10:19:20;;;;;;;3.42;1.48;;;;;;;26.19;31.16;100861.81;5569262;32;33592;-58
2022/08/11 10:36:04;;;;;;;2.00;1.23;;;;;;;26.43;32.19;100830.25;5569185;32;33778;-57
2022/08/11 10:39:20;;;;;;;4.80;1.40;;;;;;;26.57;30.56;100821.38;5568893;32;34359;-57
2022/08/11 10:49:31;;;;;;;3.58;1.30;;;;;;;26.73;30.70;100825.88;5568535;32;33635;-57
2022/08/11 10:59:21;;;;;;;3.97;1.50;;;;;;;26.64;29.18;100813.19;5568807;32;34390;-57
2022/08/11 11:02:26;;;;;;;4.60;1.70;;;;;;;26.52;29.04;100816.22;5569121;32;34389;-57
2022/08/11 11:05:30;;;;;;;2.45;1.40;;;;;;;26.47;28.69;100806.37;5561260;32;33796;-57
2022/08/11 11:08:52;;;;;;;3.40;1.40;;;;;;;26.57;29.17;100804.88;5561930;32;34445;-57
2022/08/11 11:19:01;;;;;;;2.33;1.30;;;;;;;26.92;28.35;100782.41;5568740;32;34328;-57
2022/08/11 11:25:38;;;;;;;2.90;1.40;;;;;;;27.00;27.32;100775.00;5556540;32;34365;-57
2022/08/11 11:28:52;;;;;;;2.75;1.42;;;;;;;27.07;27.17;100774.25;5568500;32;33630;-58
2022/08/11 11:32:31;;;;;;;;;;;;;;;27.07;27.68;100775.03;5549843;32;34348;-57
2022/08/11 11:35:54;;;;;;;3.17;1.40;;;;;;;27.19;27.77;100776.72;5472514;32;34587;-57
2022/08/11 11:38:57;;;;;;;3.37;1.35;;;;;;;27.22;27.43;100759.44;5549478;32;34260;-58
2022/08/11 11:42:03;;;;;;;3.05;1.60;;;;;;;27.25;28.31;100758.69;5549671;32;33694;-57
2022/08/11 11:45:08;;;;;;;3.42;1.23;;;;;;;27.31;26.41;100756.31;5550508;32;33942;-58
2022/08/11 11:48:16;;;;;;;2.75;1.30;;;;;;;27.38;27.03;100753.59;5568681;31;34257;-58
2022/08/11 11:51:20;;;;;;;2.83;1.40;;;;;;;27.43;25.95;100742.25;5568671;32;33414;-57
2022/08/11 11:54:30;;;;;;;6.60;1.60;;;;;;;27.43;27.47;100752.47;5549400;32;33703;-57
2022/08/11 12:01:18;;;;;;;4.47;1.10;;;;;;;27.26;27.29;100746.47;5549234;32;33759;-57
2022/08/11 12:04:22;;;;;;;2.15;1.10;;;;;;;27.14;27.04;100739.31;5547899;32;33626;-58
2022/08/11 12:10:47;;;;;;;4.22;1.20;;;;;;;27.08;28.02;100737.28;5548816;32;34453;-57
2022/08/11 12:13:52;;;;;;;2.15;1.30;;;;;;;27.06;29.74;100737.69;5549054;32;33629;-57
2022/08/11 12:16:56;;;;;;;4.37;1.27;;;;;;;27.09;27.63;100728.66;5548986;32;33438;-57
2022/08/11 12:19:58;;;;;;;1.98;1.30;;;;;;;27.04;29.80;100726.25;5551334;32;34242;-57
2022/08/11 12:30:10;;;;;;;2.53;1.23;;;;;;;26.98;28.30;100710.50;5550648;32;33682;-57
2022/08/11 12:33:13;;;;;;;2.60;1.17;;;;;;;27.02;27.54;100720.38;5550860;32;34371;-57
2022/08/11 12:36:25;;;;;;;2.80;0.93;;;;;;;27.06;27.68;100712.13;5551267;32;34377;-57
2022/08/11 12:46:44;;;;;;;2.47;1.40;;;;;;;27.07;27.41;100695.22;5551070;32;33917;-57
2022/08/11 12:53:28;;;;;;;2.72;1.10;;;;;;;27.04;27.56;100700.72;5550994;32;33713;-57
2022/08/11 13:06:57;;;;;;;32.35;3.30;;;;;;;27.31;28.44;100687.50;5550168;32;33673;-57
2022/08/11 13:10:03;;;;;;;15.52;1.60;;;;;;;27.23;27.55;100680.41;5550610;32;33574;-57
2022/08/11 13:13:06;;;;;;;16.33;1.60;;;;;;;27.23;27.45;100669.41;5550472;32;33717;-57
2022/08/11 13:17:19;;;;;;;2.72;1.10;;;;;;;27.25;27.48;100675.28;5550517;32;33651;-57
2022/08/11 13:19:58;;;;;;;7.05;1.60;;;;;;;27.33;27.55;100674.94;5550816;32;33672;-57
2022/08/11 13:23:02;;;;;;;2.20;1.33;;;;;;;27.28;27.01;100674.53;5550645;32;33754;-57
2022/08/11 13:26:07;;;;;;;9.48;1.40;;;;;;;27.33;27.52;100674.94;5550751;32;34267;-57
2022/08/11 13:29:10;;;;;;;7.53;1.70;;;;;;;27.35;28.13;100666.28;5549920;32;33748;-57
2022/08/11 13:32:14;;;;;;;5.65;1.33;;;;;;;27.32;28.14;100662.38;5550806;32;34263;-57
2022/08/11 13:35:17;;;;;;;2.23;1.20;;;;;;;27.37;27.94;100661.97;5550774;32;34355;-57
2022/08/11 13:38:23;;;;;;;13.90;2.03;;;;;;;27.44;28.17;100655.72;5550282;32;33788;-58
2022/08/11 13:41:40;;;;;;;19.42;1.70;;;;;;;27.47;31.22;100654.94;5550494;32;33923;-57
2022/08/11 13:44:43;;;;;;;3.53;1.23;;;;;;;27.50;30.25;100658.88;5550103;32;34341;-58
2022/08/11 13:47:45;;;;;;;3.67;1.42;;;;;;;27.50;29.69;100656.91;5550534;32;33696;-58
2022/08/11 13:54:14;;;;;;;6.22;1.62;;;;;;;27.33;30.93;100652.12;5550554;32;33607;-57
2022/08/11 13:57:18;;;;;;;9.57;1.70;;;;;;;27.21;30.01;100642.25;5550402;32;33759;-57
2022/08/11 14:00:44;;;;;;;2.30;1.30;;;;;;;27.26;29.59;100650.16;5550493;32;34443;-57
2022/08/11 14:03:55;;;;;;;8.60;1.80;;;;;;;27.16;30.66;100648.94;5550572;32;33646;-57
2022/08/11 14:07:21;;;;;;;2.53;1.10;;;;;;;27.16;31.00;100651.69;5550541;32;34473;-57
2022/08/11 14:10:28;;;;;;;3.72;1.30;;;;;;;27.12;30.19;100645.34;5550548;32;34396;-57
2022/08/11 14:13:37;;;;;;;11.65;1.20;;;;;;;27.11;31.12;100643.75;5550334;32;33244;-58
2022/08/11 14:16:46;;;;;;;18.10;1.85;;;;;;;27.11;29.98;100638.25;5550276;32;33633;-57
2022/08/11 14:19:52;;;;;;;6.20;1.30;;;;;;;27.10;31.28;100642.19;5550327;32;33776;-57
2022/08/11 14:22:55;;;;;;;2.20;1.15;;;;;;;27.22;31.13;100637.53;5550355;32;33709;-57
2022/08/11 14:29:21;;;;;;;1.48;1.15;;;;;;;27.35;30.38;100639.56;5550260;32;33700;-57
2022/08/11 14:32:25;;;;;;;2.55;1.10;;;;;;;27.26;29.39;100636.38;5550065;32;34262;-57
2022/08/11 14:35:28;;;;;;;;;;;;;;;27.14;30.41;100633.97;5550447;32;33335;-57
2022/08/11 14:38:35;;;;;;;2.72;1.27;;;;;;;27.01;29.96;100625.22;5550093;32;34628;-57
